sensor_id;sensor_type;location;lat;lon;timestamp;pressure;altitude;pressure_sealevel;temperature;humidity
12215;BME280;6170;42.206;24.142;2024-01-30T00:01:19;100854.09;;;-0.01;71.12
12215;BME280;6170;42.206;24.142;2024-01-30T00:03:46;100847.78;;;-0.29;72.01
12215;BME280;6170;42.206;24.142;2024-01-30T00:06:14;100847.75;;;-0.78;72.87
12215;BME280;6170;42.206;24.142;2024-01-30T00:08:41;100848.78;;;-0.48;72.52
12215;BME280;6170;42.206;24.142;2024-01-30T00:11:12;100850.84;;;-0.70;72.71
12215;BME280;6170;42.206;24.142;2024-01-30T00:13:38;100856.41;;;-0.59;72.60
12215;BME280;6170;42.206;24.142;2024-01-30T00:16:06;100863.78;;;-0.82;73.23
12215;BME280;6170;42.206;24.142;2024-01-30T00:18:34;100845.84;;;-0.92;73.46
12215;BME280;6170;42.206;24.142;2024-01-30T00:21:00;100856.44;;;-0.76;73.68
12215;BME280;6170;42.206;24.142;2024-01-30T00:23:29;100843.69;;;-1.01;74.87
12215;BME280;6170;42.206;24.142;2024-01-30T00:25:55;100845.53;;;-0.85;74.75
12215;BME280;6170;42.206;24.142;2024-01-30T00:28:22;100830.25;;;-1.12;75.16
12215;BME280;6170;42.206;24.142;2024-01-30T00:30:49;100863.63;;;-0.79;74.74
12215;BME280;6170;42.206;24.142;2024-01-30T00:33:16;100822.13;;;-0.74;74.38
12215;BME280;6170;42.206;24.142;2024-01-30T00:35:43;100851.81;;;-0.22;74.04
12215;BME280;6170;42.206;24.142;2024-01-30T00:38:10;100869.56;;;0.06;73.77
12215;BME280;6170;42.206;24.142;2024-01-30T00:40:38;100865.56;;;0.14;73.35
12215;BME280;6170;42.206;24.142;2024-01-30T00:43:05;100856.03;;;0.27;73.06
12215;BME280;6170;42.206;24.142;2024-01-30T00:45:32;100845.75;;;0.07;72.81
12215;BME280;6170;42.206;24.142;2024-01-30T00:47:59;100853.38;;;0.27;72.45
12215;BME280;6170;42.206;24.142;2024-01-30T00:50:25;100896.19;;;0.17;72.99
12215;BME280;6170;42.206;24.142;2024-01-30T00:52:52;100872.34;;;0.18;72.67
12215;BME280;6170;42.206;24.142;2024-01-30T00:55:19;100840.16;;;-0.03;72.00
12215;BME280;6170;42.206;24.142;2024-01-30T00:57:48;100852.47;;;-0.03;72.48
12215;BME280;6170;42.206;24.142;2024-01-30T01:00:15;100868.31;;;0.13;72.64
12215;BME280;6170;42.206;24.142;2024-01-30T01:02:42;101013.91;;;0.96;71.77
12215;BME280;6170;42.206;24.142;2024-01-30T01:05:09;100830.28;;;-0.15;71.62
12215;BME280;6170;42.206;24.142;2024-01-30T01:07:35;100999.81;;;0.66;72.49
12215;BME280;6170;42.206;24.142;2024-01-30T01:10:02;100800.50;;;-0.48;72.24
12215;BME280;6170;42.206;24.142;2024-01-30T01:12:29;100860.50;;;-0.05;72.27
12215;BME280;6170;42.206;24.142;2024-01-30T01:14:57;100852.03;;;0.05;71.65
12215;BME280;6170;42.206;24.142;2024-01-30T01:17:24;100856.50;;;0.04;70.96
12215;BME280;6170;42.206;24.142;2024-01-30T01:19:51;100836.88;;;-0.39;72.47
12215;BME280;6170;42.206;24.142;2024-01-30T01:22:18;100850.25;;;-0.26;72.13
12215;BME280;6170;42.206;24.142;2024-01-30T01:24:45;100856.06;;;-0.53;72.38
12215;BME280;6170;42.206;24.142;2024-01-30T01:27:12;100962.09;;;0.17;72.46
12215;BME280;6170;42.206;24.142;2024-01-30T01:29:38;100853.03;;;-0.45;72.04
12215;BME280;6170;42.206;24.142;2024-01-30T01:32:07;100848.53;;;-0.43;71.35
12215;BME280;6170;42.206;24.142;2024-01-30T01:34:34;100807.06;;;-0.55;71.93
12215;BME280;6170;42.206;24.142;2024-01-30T01:37:00;100860.44;;;-0.36;71.91
12215;BME280;6170;42.206;24.142;2024-01-30T01:39:27;100844.94;;;-0.58;72.20
12215;BME280;6170;42.206;24.142;2024-01-30T01:41:54;100852.44;;;-0.50;72.55
12215;BME280;6170;42.206;24.142;2024-01-30T01:44:21;100896.66;;;-0.57;72.03
12215;BME280;6170;42.206;24.142;2024-01-30T01:46:48;100844.47;;;-0.66;72.44
12215;BME280;6170;42.206;24.142;2024-01-30T01:49:17;100844.22;;;-0.77;73.10
12215;BME280;6170;42.206;24.142;2024-01-30T01:51:45;100877.00;;;-0.50;72.78
12215;BME280;6170;42.206;24.142;2024-01-30T01:54:14;100849.13;;;-0.54;71.90
12215;BME280;6170;42.206;24.142;2024-01-30T01:56:42;100847.31;;;-0.53;72.44
12215;BME280;6170;42.206;24.142;2024-01-30T01:59:09;100872.03;;;-0.56;72.18
12215;BME280;6170;42.206;24.142;2024-01-30T02:01:36;100847.59;;;-1.42;72.70
12215;BME280;6170;42.206;24.142;2024-01-30T02:04:04;100846.16;;;-1.15;72.36
12215;BME280;6170;42.206;24.142;2024-01-30T02:06:33;100821.41;;;-1.28;72.02
12215;BME280;6170;42.206;24.142;2024-01-30T02:09:01;100821.13;;;-1.22;71.81
12215;BME280;6170;42.206;24.142;2024-01-30T02:11:28;100840.38;;;-1.04;72.73
12215;BME280;6170;42.206;24.142;2024-01-30T02:13:55;100850.34;;;-0.94;71.69
12215;BME280;6170;42.206;24.142;2024-01-30T02:16:22;100741.09;;;-1.68;71.92
12215;BME280;6170;42.206;24.142;2024-01-30T02:18:49;100848.66;;;-0.95;72.52
12215;BME280;6170;42.206;24.142;2024-01-30T02:21:18;100848.41;;;-0.90;72.19
12215;BME280;6170;42.206;24.142;2024-01-30T02:23:46;100858.09;;;-0.91;72.02
12215;BME280;6170;42.206;24.142;2024-01-30T02:26:13;100852.38;;;-1.16;72.04
12215;BME280;6170;42.206;24.142;2024-01-30T02:28:40;100856.84;;;-1.52;72.56
12215;BME280;6170;42.206;24.142;2024-01-30T02:31:07;100837.06;;;-2.33;74.73
12215;BME280;6170;42.206;24.142;2024-01-30T02:33:34;100837.56;;;-2.43;75.15
12215;BME280;6170;42.206;24.142;2024-01-30T02:36:01;100846.06;;;-2.19;75.53
12215;BME280;6170;42.206;24.142;2024-01-30T02:38:30;101032.41;;;-0.85;74.51
12215;BME280;6170;42.206;24.142;2024-01-30T02:40:56;100847.88;;;-1.84;73.86
12215;BME280;6170;42.206;24.142;2024-01-30T02:43:23;100835.84;;;-1.71;73.95
12215;BME280;6170;42.206;24.142;2024-01-30T02:45:50;100826.25;;;-1.72;74.86
12215;BME280;6170;42.206;24.142;2024-01-30T02:48:17;100929.19;;;-1.09;74.33
12215;BME280;6170;42.206;24.142;2024-01-30T02:50:44;100824.28;;;-1.50;74.83
12215;BME280;6170;42.206;24.142;2024-01-30T02:53:11;100836.28;;;-1.44;74.69
12215;BME280;6170;42.206;24.142;2024-01-30T02:55:39;101027.22;;;-0.18;74.47
12215;BME280;6170;42.206;24.142;2024-01-30T02:58:06;100848.88;;;-0.99;73.83
12215;BME280;6170;42.206;24.142;2024-01-30T03:00:34;100846.28;;;-1.16;74.01
12215;BME280;6170;42.206;24.142;2024-01-30T03:03:01;100822.75;;;-1.02;74.02
12215;BME280;6170;42.206;24.142;2024-01-30T03:05:28;100827.53;;;-0.93;73.42
12215;BME280;6170;42.206;24.142;2024-01-30T03:07:55;100830.00;;;-0.90;73.58
12215;BME280;6170;42.206;24.142;2024-01-30T03:10:22;100884.06;;;-0.34;72.59
12215;BME280;6170;42.206;24.142;2024-01-30T03:12:50;100824.28;;;-0.65;72.50
12215;BME280;6170;42.206;24.142;2024-01-30T03:15:17;100869.94;;;-0.66;72.57
12215;BME280;6170;42.206;24.142;2024-01-30T03:17:44;100841.47;;;-0.42;72.33
12215;BME280;6170;42.206;24.142;2024-01-30T03:20:11;100836.78;;;-0.53;72.83
12215;BME280;6170;42.206;24.142;2024-01-30T03:22:38;100831.00;;;-0.44;72.60
12215;BME280;6170;42.206;24.142;2024-01-30T03:25:05;100858.50;;;-0.32;71.72
12215;BME280;6170;42.206;24.142;2024-01-30T03:27:32;100817.03;;;-0.77;72.06
12215;BME280;6170;42.206;24.142;2024-01-30T03:30:01;100865.03;;;-0.72;72.65
12215;BME280;6170;42.206;24.142;2024-01-30T03:32:28;100821.00;;;-0.86;72.71
12215;BME280;6170;42.206;24.142;2024-01-30T03:34:55;100822.06;;;-0.73;73.06
12215;BME280;6170;42.206;24.142;2024-01-30T03:37:22;100823.34;;;-0.64;72.85
12215;BME280;6170;42.206;24.142;2024-01-30T03:39:49;100836.31;;;-0.77;73.14
12215;BME280;6170;42.206;24.142;2024-01-30T03:42:16;100833.34;;;-0.71;73.42
12215;BME280;6170;42.206;24.142;2024-01-30T03:44:42;100842.22;;;-0.56;73.14
12215;BME280;6170;42.206;24.142;2024-01-30T03:47:11;100830.19;;;-0.44;72.68
12215;BME280;6170;42.206;24.142;2024-01-30T03:49:38;100824.28;;;-0.65;72.75
12215;BME280;6170;42.206;24.142;2024-01-30T03:52:05;100833.34;;;-0.38;72.07
12215;BME280;6170;42.206;24.142;2024-01-30T03:54:32;100837.31;;;-0.47;72.00
12215;BME280;6170;42.206;24.142;2024-01-30T03:56:58;100792.22;;;-0.40;70.63
12215;BME280;6170;42.206;24.142;2024-01-30T03:59:25;100839.13;;;-1.14;73.56
12215;BME280;6170;42.206;24.142;2024-01-30T04:01:52;100831.34;;;-1.16;74.03
12215;BME280;6170;42.206;24.142;2024-01-30T04:04:21;101052.03;;;-0.22;74.09
12215;BME280;6170;42.206;24.142;2024-01-30T04:06:48;101040.50;;;-0.04;74.03
12215;BME280;6170;42.206;24.142;2024-01-30T04:09:15;100848.03;;;-1.00;73.47
12215;BME280;6170;42.206;24.142;2024-01-30T04:11:42;100973.81;;;-0.22;73.56
12215;BME280;6170;42.206;24.142;2024-01-30T04:14:10;100843.19;;;-1.24;73.98
12215;BME280;6170;42.206;24.142;2024-01-30T04:16:37;100842.09;;;-1.20;74.00
12215;BME280;6170;42.206;24.142;2024-01-30T04:19:04;100847.59;;;-1.25;74.41
12215;BME280;6170;42.206;24.142;2024-01-30T04:21:32;100832.31;;;-1.70;74.96
12215;BME280;6170;42.206;24.142;2024-01-30T04:23:59;100811.47;;;-1.56;74.70
12215;BME280;6170;42.206;24.142;2024-01-30T04:26:26;100843.53;;;-1.49;74.32
12215;BME280;6170;42.206;24.142;2024-01-30T04:28:53;100852.16;;;-1.28;73.69
12215;BME280;6170;42.206;24.142;2024-01-30T04:31:20;100860.75;;;-1.25;73.67
12215;BME280;6170;42.206;24.142;2024-01-30T04:33:49;100823.16;;;-1.80;74.21
12215;BME280;6170;42.206;24.142;2024-01-30T04:36:16;100825.06;;;-2.01;73.53
12215;BME280;6170;42.206;24.142;2024-01-30T04:38:45;100872.75;;;-2.29;74.89
12215;BME280;6170;42.206;24.142;2024-01-30T04:41:11;100852.13;;;-2.17;74.93
12215;BME280;6170;42.206;24.142;2024-01-30T04:43:39;100953.31;;;-1.36;74.72
12215;BME280;6170;42.206;24.142;2024-01-30T04:46:05;100855.25;;;-1.38;73.90
12215;BME280;6170;42.206;24.142;2024-01-30T04:48:32;100857.78;;;-1.19;73.69
12215;BME280;6170;42.206;24.142;2024-01-30T04:50:59;100809.06;;;-1.43;73.03
12215;BME280;6170;42.206;24.142;2024-01-30T04:53:29;100848.31;;;-0.88;73.25
12215;BME280;6170;42.206;24.142;2024-01-30T04:55:58;100868.53;;;-0.89;72.98
12215;BME280;6170;42.206;24.142;2024-01-30T04:58:25;100861.47;;;-0.71;71.94
12215;BME280;6170;42.206;24.142;2024-01-30T05:00:52;100868.19;;;-0.66;72.12
12215;BME280;6170;42.206;24.142;2024-01-30T05:03:19;100875.59;;;-0.57;71.65
12215;BME280;6170;42.206;24.142;2024-01-30T05:05:48;100885.31;;;-0.41;71.58
12215;BME280;6170;42.206;24.142;2024-01-30T05:08:14;100859.78;;;-0.24;70.63
12215;BME280;6170;42.206;24.142;2024-01-30T05:10:41;100871.69;;;-0.17;70.12
12215;BME280;6170;42.206;24.142;2024-01-30T05:13:10;100875.66;;;-0.41;71.44
12215;BME280;6170;42.206;24.142;2024-01-30T05:15:39;101055.22;;;0.66;71.07
12215;BME280;6170;42.206;24.142;2024-01-30T05:18:06;100877.34;;;-0.40;70.96
12215;BME280;6170;42.206;24.142;2024-01-30T05:20:33;100901.94;;;-0.24;70.29
12215;BME280;6170;42.206;24.142;2024-01-30T05:22:59;100883.41;;;-0.22;70.48
12215;BME280;6170;42.206;24.142;2024-01-30T05:25:26;100886.22;;;0.06;69.42
12215;BME280;6170;42.206;24.142;2024-01-30T05:27:53;100892.09;;;0.11;69.49
12215;BME280;6170;42.206;24.142;2024-01-30T05:30:22;100882.50;;;0.10;69.06
12215;BME280;6170;42.206;24.142;2024-01-30T05:32:49;100908.00;;;0.25;68.68
12215;BME280;6170;42.206;24.142;2024-01-30T05:35:16;100907.13;;;0.40;68.54
12215;BME280;6170;42.206;24.142;2024-01-30T05:37:42;100875.59;;;0.23;69.19
12215;BME280;6170;42.206;24.142;2024-01-30T05:40:10;100896.97;;;0.34;68.96
12215;BME280;6170;42.206;24.142;2024-01-30T05:42:37;100882.13;;;0.32;68.30
12215;BME280;6170;42.206;24.142;2024-01-30T05:45:05;100883.00;;;0.48;67.70
12215;BME280;6170;42.206;24.142;2024-01-30T05:47:34;100909.13;;;0.21;68.16
12215;BME280;6170;42.206;24.142;2024-01-30T05:50:01;100879.94;;;0.24;68.66
12215;BME280;6170;42.206;24.142;2024-01-30T05:52:28;100907.72;;;0.61;67.93
12215;BME280;6170;42.206;24.142;2024-01-30T05:54:55;100880.88;;;0.39;67.89
12215;BME280;6170;42.206;24.142;2024-01-30T05:57:22;100834.78;;;-0.81;69.28
12215;BME280;6170;42.206;24.142;2024-01-30T05:59:49;100875.28;;;-0.51;71.26
12215;BME280;6170;42.206;24.142;2024-01-30T06:02:17;100890.47;;;-0.56;71.60
12215;BME280;6170;42.206;24.142;2024-01-30T06:04:45;100831.97;;;-1.11;72.14
12215;BME280;6170;42.206;24.142;2024-01-30T06:07:12;100882.28;;;-0.84;73.21
12215;BME280;6170;42.206;24.142;2024-01-30T06:09:39;100884.50;;;-0.59;72.92
12215;BME280;6170;42.206;24.142;2024-01-30T06:12:06;100864.56;;;-0.48;73.14
12215;BME280;6170;42.206;24.142;2024-01-30T06:14:33;100889.13;;;0.02;70.94
12215;BME280;6170;42.206;24.142;2024-01-30T06:17:00;100911.06;;;0.02;71.10
12215;BME280;6170;42.206;24.142;2024-01-30T06:19:28;100902.91;;;0.38;69.88
12215;BME280;6170;42.206;24.142;2024-01-30T06:21:58;100905.75;;;1.10;68.58
12215;BME280;6170;42.206;24.142;2024-01-30T06:24:25;100918.25;;;2.07;65.99
12215;BME280;6170;42.206;24.142;2024-01-30T06:26:53;101059.16;;;3.86;63.38
12215;BME280;6170;42.206;24.142;2024-01-30T06:29:20;100889.56;;;3.84;61.45
12215;BME280;6170;42.206;24.142;2024-01-30T06:31:47;100893.25;;;3.94;60.52
12215;BME280;6170;42.206;24.142;2024-01-30T06:34:14;100915.63;;;4.03;60.57
12215;BME280;6170;42.206;24.142;2024-01-30T06:36:41;100972.38;;;4.62;58.88
12215;BME280;6170;42.206;24.142;2024-01-30T06:39:09;101072.75;;;6.12;57.72
12215;BME280;6170;42.206;24.142;2024-01-30T06:41:36;100918.44;;;5.77;55.40
12215;BME280;6170;42.206;24.142;2024-01-30T06:44:03;100915.00;;;5.88;55.29
12215;BME280;6170;42.206;24.142;2024-01-30T06:46:31;100885.78;;;5.75;54.24
12215;BME280;6170;42.206;24.142;2024-01-30T06:48:59;100931.13;;;4.45;56.67
12215;BME280;6170;42.206;24.142;2024-01-30T06:51:26;100938.34;;;5.04;55.81
12215;BME280;6170;42.206;24.142;2024-01-30T06:53:53;100908.91;;;5.18;55.09
12215;BME280;6170;42.206;24.142;2024-01-30T06:56:22;100914.66;;;4.04;55.67
12215;BME280;6170;42.206;24.142;2024-01-30T06:58:49;101074.91;;;4.39;57.25
12215;BME280;6170;42.206;24.142;2024-01-30T07:01:16;100954.66;;;2.98;58.50
12215;BME280;6170;42.206;24.142;2024-01-30T07:03:43;100883.59;;;2.12;59.37
12215;BME280;6170;42.206;24.142;2024-01-30T07:06:10;100863.34;;;2.25;58.29
12215;BME280;6170;42.206;24.142;2024-01-30T07:08:37;100949.13;;;3.41;59.18
12215;BME280;6170;42.206;24.142;2024-01-30T07:11:04;100930.38;;;5.15;55.90
12215;BME280;6170;42.206;24.142;2024-01-30T07:13:34;101056.63;;;7.14;53.72
12215;BME280;6170;42.206;24.142;2024-01-30T07:16:01;100924.84;;;6.96;51.85
12215;BME280;6170;42.206;24.142;2024-01-30T07:18:28;100934.97;;;6.70;51.69
12215;BME280;6170;42.206;24.142;2024-01-30T07:20:55;100926.91;;;6.49;51.82
12215;BME280;6170;42.206;24.142;2024-01-30T07:23:22;100919.16;;;5.68;53.11
12215;BME280;6170;42.206;24.142;2024-01-30T07:25:49;100941.09;;;4.78;54.60
12215;BME280;6170;42.206;24.142;2024-01-30T07:28:16;100911.75;;;4.32;55.41
12215;BME280;6170;42.206;24.142;2024-01-30T07:30:44;100943.78;;;3.80;56.96
12215;BME280;6170;42.206;24.142;2024-01-30T07:33:11;100923.72;;;3.89;57.61
12215;BME280;6170;42.206;24.142;2024-01-30T07:35:38;100880.56;;;3.61;57.50
12215;BME280;6170;42.206;24.142;2024-01-30T07:38:05;100904.09;;;3.79;56.72
12215;BME280;6170;42.206;24.142;2024-01-30T07:40:32;100905.63;;;4.56;55.84
12215;BME280;6170;42.206;24.142;2024-01-30T07:42:59;100847.78;;;5.18;54.27
12215;BME280;6170;42.206;24.142;2024-01-30T07:45:26;100910.19;;;5.47;53.43
12215;BME280;6170;42.206;24.142;2024-01-30T07:47:59;100917.72;;;5.64;52.22
12215;BME280;6170;42.206;24.142;2024-01-30T07:50:26;100936.34;;;4.94;54.66
12215;BME280;6170;42.206;24.142;2024-01-30T07:52:53;100912.38;;;5.07;54.64
12215;BME280;6170;42.206;24.142;2024-01-30T07:55:20;100905.75;;;5.70;52.22
12215;BME280;6170;42.206;24.142;2024-01-30T07:57:50;101002.22;;;6.18;52.01
12215;BME280;6170;42.206;24.142;2024-01-30T08:00:18;100930.50;;;5.59;52.68
12215;BME280;6170;42.206;24.142;2024-01-30T08:02:51;100909.53;;;5.90;52.10
12215;BME280;6170;42.206;24.142;2024-01-30T08:05:21;100901.31;;;5.24;52.18
12215;BME280;6170;42.206;24.142;2024-01-30T08:07:49;100975.47;;;5.51;53.43
12215;BME280;6170;42.206;24.142;2024-01-30T08:10:18;100910.13;;;4.42;54.22
12215;BME280;6170;42.206;24.142;2024-01-30T08:12:45;100895.56;;;4.72;53.64
12215;BME280;6170;42.206;24.142;2024-01-30T08:15:12;100897.84;;;4.29;54.07
12215;BME280;6170;42.206;24.142;2024-01-30T08:17:39;100830.75;;;4.27;52.31
12215;BME280;6170;42.206;24.142;2024-01-30T08:20:07;100899.97;;;4.60;52.81
12215;BME280;6170;42.206;24.142;2024-01-30T08:22:35;100906.03;;;5.21;52.74
12215;BME280;6170;42.206;24.142;2024-01-30T08:25:02;100906.06;;;5.43;52.36
12215;BME280;6170;42.206;24.142;2024-01-30T08:27:29;100878.66;;;6.20;51.06
12215;BME280;6170;42.206;24.142;2024-01-30T08:29:56;101008.50;;;6.72;49.55
12215;BME280;6170;42.206;24.142;2024-01-30T08:32:22;100921.13;;;6.33;50.69
12215;BME280;6170;42.206;24.142;2024-01-30T08:34:49;100993.00;;;7.09;48.87
12215;BME280;6170;42.206;24.142;2024-01-30T08:37:16;100903.81;;;6.82;49.58
12215;BME280;6170;42.206;24.142;2024-01-30T08:39:45;100902.03;;;6.71;49.50
12215;BME280;6170;42.206;24.142;2024-01-30T08:42:11;100888.31;;;6.55;48.64
12215;BME280;6170;42.206;24.142;2024-01-30T08:44:38;100892.72;;;6.22;48.81
12215;BME280;6170;42.206;24.142;2024-01-30T08:47:05;100889.75;;;6.48;49.35
12215;BME280;6170;42.206;24.142;2024-01-30T08:49:32;100888.84;;;6.26;49.26
12215;BME280;6170;42.206;24.142;2024-01-30T08:51:59;100883.78;;;6.98;48.80
12215;BME280;6170;42.206;24.142;2024-01-30T08:54:26;100921.03;;;7.09;48.00
12215;BME280;6170;42.206;24.142;2024-01-30T08:56:54;100900.75;;;6.86;48.32
12215;BME280;6170;42.206;24.142;2024-01-30T08:59:23;100878.44;;;7.40;48.39
12215;BME280;6170;42.206;24.142;2024-01-30T09:01:50;100879.31;;;7.71;47.84
12215;BME280;6170;42.206;24.142;2024-01-30T09:04:20;100874.09;;;7.39;47.14
12215;BME280;6170;42.206;24.142;2024-01-30T09:06:48;100868.34;;;7.64;47.37
12215;BME280;6170;42.206;24.142;2024-01-30T09:09:17;101002.25;;;8.50;47.61
12215;BME280;6170;42.206;24.142;2024-01-30T09:11:44;100891.63;;;8.23;47.48
12215;BME280;6170;42.206;24.142;2024-01-30T09:14:12;100822.31;;;7.00;45.92
12215;BME280;6170;42.206;24.142;2024-01-30T09:16:39;100862.97;;;7.34;46.67
12215;BME280;6170;42.206;24.142;2024-01-30T09:19:06;100852.47;;;8.02;45.98
12215;BME280;6170;42.206;24.142;2024-01-30T09:21:33;100841.44;;;7.77;47.25
12215;BME280;6170;42.206;24.142;2024-01-30T09:24:02;100864.06;;;8.22;46.54
12215;BME280;6170;42.206;24.142;2024-01-30T09:26:29;100871.31;;;8.41;46.14
12215;BME280;6170;42.206;24.142;2024-01-30T09:28:56;100701.53;;;7.79;45.20
12215;BME280;6170;42.206;24.142;2024-01-30T09:31:24;100856.72;;;8.45;45.04
12215;BME280;6170;42.206;24.142;2024-01-30T09:33:51;100800.31;;;8.38;44.40
12215;BME280;6170;42.206;24.142;2024-01-30T09:36:19;100858.81;;;9.09;43.92
12215;BME280;6170;42.206;24.142;2024-01-30T09:38:46;100867.94;;;9.25;44.57
12215;BME280;6170;42.206;24.142;2024-01-30T09:41:14;100847.78;;;8.25;44.17
12215;BME280;6170;42.206;24.142;2024-01-30T09:43:47;100835.59;;;9.09;43.39
12215;BME280;6170;42.206;24.142;2024-01-30T09:46:16;100842.09;;;10.00;41.68
12215;BME280;6170;42.206;24.142;2024-01-30T09:48:46;100830.97;;;8.92;43.71
12215;BME280;6170;42.206;24.142;2024-01-30T09:51:14;100836.59;;;9.08;43.69
12215;BME280;6170;42.206;24.142;2024-01-30T09:53:42;100814.53;;;9.43;42.53
12215;BME280;6170;42.206;24.142;2024-01-30T09:56:09;100841.06;;;9.36;43.93
12215;BME280;6170;42.206;24.142;2024-01-30T09:58:36;100809.00;;;9.08;43.22
12215;BME280;6170;42.206;24.142;2024-01-30T10:01:05;100813.13;;;9.85;43.71
12215;BME280;6170;42.206;24.142;2024-01-30T10:03:32;100815.72;;;9.21;43.54
12215;BME280;6170;42.206;24.142;2024-01-30T10:06:01;100798.47;;;8.39;43.67
12215;BME280;6170;42.206;24.142;2024-01-30T10:08:28;100826.63;;;8.72;43.14
12215;BME280;6170;42.206;24.142;2024-01-30T10:10:55;100748.50;;;8.97;43.50
12215;BME280;6170;42.206;24.142;2024-01-30T10:13:22;100807.63;;;9.50;43.78
12215;BME280;6170;42.206;24.142;2024-01-30T10:15:49;100800.50;;;9.31;43.79
12215;BME280;6170;42.206;24.142;2024-01-30T10:18:17;100818.28;;;9.97;43.32
12215;BME280;6170;42.206;24.142;2024-01-30T10:20:44;100799.31;;;10.17;42.41
12215;BME280;6170;42.206;24.142;2024-01-30T10:23:13;100820.69;;;9.63;41.60
12215;BME280;6170;42.206;24.142;2024-01-30T10:25:40;100784.41;;;9.51;41.39
12215;BME280;6170;42.206;24.142;2024-01-30T10:28:07;100788.84;;;9.23;42.57
12215;BME280;6170;42.206;24.142;2024-01-30T10:30:34;100784.03;;;9.36;43.42
12215;BME280;6170;42.206;24.142;2024-01-30T10:33:02;100784.31;;;9.33;42.57
12215;BME280;6170;42.206;24.142;2024-01-30T10:35:29;100779.19;;;9.49;42.44
12215;BME280;6170;42.206;24.142;2024-01-30T10:37:57;100792.03;;;9.36;42.99
12215;BME280;6170;42.206;24.142;2024-01-30T10:40:27;100775.41;;;9.69;41.97
12215;BME280;6170;42.206;24.142;2024-01-30T10:42:55;100794.75;;;9.63;42.51
12215;BME280;6170;42.206;24.142;2024-01-30T10:45:23;100859.31;;;9.60;42.70
12215;BME280;6170;42.206;24.142;2024-01-30T10:47:55;100779.44;;;9.83;42.06
12215;BME280;6170;42.206;24.142;2024-01-30T10:50:24;100727.00;;;9.35;41.49
12215;BME280;6170;42.206;24.142;2024-01-30T10:52:52;100770.84;;;10.07;41.85
12215;BME280;6170;42.206;24.142;2024-01-30T10:55:21;100790.84;;;9.58;42.70
12215;BME280;6170;42.206;24.142;2024-01-30T10:57:50;100788.91;;;9.50;44.24
12215;BME280;6170;42.206;24.142;2024-01-30T11:00:18;100792.22;;;9.25;42.70
12215;BME280;6170;42.206;24.142;2024-01-30T11:02:49;100767.31;;;9.52;40.78
12215;BME280;6170;42.206;24.142;2024-01-30T11:05:23;100775.47;;;9.87;42.62
12215;BME280;6170;42.206;24.142;2024-01-30T11:07:52;100768.78;;;9.46;43.61
12215;BME280;6170;42.206;24.142;2024-01-30T11:10:19;100706.91;;;8.85;42.17
12215;BME280;6170;42.206;24.142;2024-01-30T11:12:46;100756.88;;;9.21;43.91
12215;BME280;6170;42.206;24.142;2024-01-30T11:15:15;100758.47;;;9.51;40.17
12215;BME280;6170;42.206;24.142;2024-01-30T11:17:50;100751.88;;;9.45;41.61
12215;BME280;6170;42.206;24.142;2024-01-30T11:20:20;100733.47;;;9.87;41.00
12215;BME280;6170;42.206;24.142;2024-01-30T11:22:50;100907.38;;;9.42;40.95
12215;BME280;6170;42.206;24.142;2024-01-30T11:25:19;100750.97;;;8.52;41.09
12215;BME280;6170;42.206;24.142;2024-01-30T11:27:47;100757.69;;;8.37;42.73
12215;BME280;6170;42.206;24.142;2024-01-30T11:30:24;100744.34;;;7.68;44.60
12215;BME280;6170;42.206;24.142;2024-01-30T11:33:05;100738.78;;;7.90;44.58
12215;BME280;6170;42.206;24.142;2024-01-30T11:35:33;100748.22;;;9.00;44.90
12215;BME280;6170;42.206;24.142;2024-01-30T11:38:01;100723.88;;;9.95;42.06
12215;BME280;6170;42.206;24.142;2024-01-30T11:40:29;100874.59;;;10.42;42.23
12215;BME280;6170;42.206;24.142;2024-01-30T11:42:58;100723.00;;;9.94;42.99
12215;BME280;6170;42.206;24.142;2024-01-30T11:45:27;100703.38;;;9.58;41.46
12215;BME280;6170;42.206;24.142;2024-01-30T11:47:54;100790.44;;;10.07;41.16
12215;BME280;6170;42.206;24.142;2024-01-30T11:50:22;100718.47;;;9.50;40.84
12215;BME280;6170;42.206;24.142;2024-01-30T11:52:49;100703.56;;;9.92;40.39
12215;BME280;6170;42.206;24.142;2024-01-30T11:55:16;100828.63;;;10.09;39.59
12215;BME280;6170;42.206;24.142;2024-01-30T11:57:43;100862.91;;;10.43;41.70
12215;BME280;6170;42.206;24.142;2024-01-30T12:00:14;100867.47;;;10.32;42.01
12215;BME280;6170;42.206;24.142;2024-01-30T12:02:44;100854.56;;;10.18;41.83
12215;BME280;6170;42.206;24.142;2024-01-30T12:05:11;100707.16;;;9.28;42.11
12215;BME280;6170;42.206;24.142;2024-01-30T12:07:38;100683.88;;;8.17;42.92
12215;BME280;6170;42.206;24.142;2024-01-30T12:10:05;100667.97;;;7.86;43.36
12215;BME280;6170;42.206;24.142;2024-01-30T12:12:33;100679.41;;;7.08;44.48
12215;BME280;6170;42.206;24.142;2024-01-30T12:15:00;100699.09;;;6.87;43.89
12215;BME280;6170;42.206;24.142;2024-01-30T12:17:28;100661.09;;;6.64;43.85
12215;BME280;6170;42.206;24.142;2024-01-30T12:20:04;100661.25;;;6.93;44.72
12215;BME280;6170;42.206;24.142;2024-01-30T12:22:33;100653.75;;;7.17;43.93
12215;BME280;6170;42.206;24.142;2024-01-30T12:25:00;100741.66;;;7.58;43.89
12215;BME280;6170;42.206;24.142;2024-01-30T12:27:27;100653.03;;;7.55;42.74
12215;BME280;6170;42.206;24.142;2024-01-30T12:29:57;100830.56;;;8.58;45.42
12215;BME280;6170;42.206;24.142;2024-01-30T12:32:24;100809.59;;;8.82;43.47
12215;BME280;6170;42.206;24.142;2024-01-30T12:34:54;100653.25;;;7.92;43.47
12215;BME280;6170;42.206;24.142;2024-01-30T12:37:23;100771.63;;;8.40;44.56
12215;BME280;6170;42.206;24.142;2024-01-30T12:39:51;100654.75;;;7.65;43.30
12215;BME280;6170;42.206;24.142;2024-01-30T12:42:19;100639.28;;;7.59;43.61
12215;BME280;6170;42.206;24.142;2024-01-30T12:44:47;100806.00;;;8.24;43.91
12215;BME280;6170;42.206;24.142;2024-01-30T12:47:14;100645.00;;;7.45;43.76
12215;BME280;6170;42.206;24.142;2024-01-30T12:49:42;100801.63;;;8.04;44.19
12215;BME280;6170;42.206;24.142;2024-01-30T12:52:09;100804.06;;;7.77;44.33
12215;BME280;6170;42.206;24.142;2024-01-30T12:54:38;100632.69;;;6.74;43.83
12215;BME280;6170;42.206;24.142;2024-01-30T12:57:05;100624.88;;;7.22;44.63